createdAt,value
2024-04-21T00:02:05.887Z,9.16
2024-04-21T00:04:33.781Z,9.17
2024-04-21T00:07:03.067Z,9.17
2024-04-21T00:09:30.912Z,9.16
2024-04-21T00:11:58.997Z,9.16
2024-04-21T00:14:27.016Z,9.18
2024-04-21T00:16:54.991Z,9.18
2024-04-21T00:19:23.379Z,9.17
2024-04-21T00:21:51.387Z,9.16
2024-04-21T00:24:19.171Z,9.15
2024-04-21T00:26:46.989Z,9.13
2024-04-21T00:29:16.215Z,9.11
2024-04-21T00:31:44.118Z,9.11
2024-04-21T00:34:11.992Z,9.11
2024-04-21T00:36:41.163Z,9.10
2024-04-21T00:39:09.241Z,9.09
2024-04-21T00:41:37.041Z,9.10
2024-04-21T00:44:05.283Z,9.10
2024-04-21T00:46:33.318Z,9.09
2024-04-21T00:49:02.490Z,9.10
2024-04-21T00:51:31.147Z,9.11
2024-04-21T00:53:59.184Z,9.08
2024-04-21T00:56:27.744Z,9.04
2024-04-21T00:58:56.130Z,9.04
2024-04-21T01:01:24.543Z,9.05
2024-04-21T01:03:53.578Z,9.04
2024-04-21T01:06:21.549Z,9.04
2024-04-21T01:08:50.192Z,9.05
2024-04-21T01:11:19.024Z,9.06
2024-04-21T01:13:47.323Z,9.05
2024-04-21T01:16:15.775Z,9.03
2024-04-21T01:18:45.733Z,9.00
2024-04-21T01:21:14.143Z,8.98
2024-04-21T01:23:41.992Z,8.95
2024-04-21T01:26:10.404Z,8.95
2024-04-21T01:28:38.467Z,8.93
2024-04-21T01:31:06.299Z,8.94
2024-04-21T01:33:34.263Z,8.92
2024-04-21T01:36:02.282Z,8.90
2024-04-21T01:38:30.385Z,8.90
2024-04-21T01:40:58.163Z,8.88
2024-04-21T01:43:26.037Z,8.87
2024-04-21T01:45:54.449Z,8.87
2024-04-21T01:48:22.358Z,8.86
2024-04-21T01:50:50.237Z,8.86
2024-04-21T01:53:18.188Z,8.86
2024-04-21T01:55:46.178Z,8.87
2024-04-21T01:58:14.877Z,8.86
2024-04-21T02:00:42.958Z,8.86
2024-04-21T02:03:11.139Z,8.86
2024-04-21T02:05:39.450Z,8.87
2024-04-21T02:08:08.242Z,8.88
2024-04-21T02:10:36.120Z,8.90
2024-04-21T02:13:04.384Z,8.90
2024-04-21T02:15:32.238Z,8.94
2024-04-21T02:18:00.133Z,8.96
2024-04-21T02:20:27.987Z,8.98
2024-04-21T02:22:56.003Z,8.99
2024-04-21T02:25:23.851Z,9.00
2024-04-21T02:27:51.802Z,8.99
2024-04-21T02:30:21.366Z,8.97
2024-04-21T02:32:50.620Z,8.96
2024-04-21T02:35:18.526Z,8.93
2024-04-21T02:37:46.925Z,8.92
2024-04-21T02:40:15.145Z,8.92
2024-04-21T02:42:43.300Z,8.92
2024-04-21T02:45:11.116Z,8.93
2024-04-21T02:47:39.015Z,8.92
2024-04-21T02:50:07.465Z,8.92
2024-04-21T02:52:35.925Z,8.92
2024-04-21T02:55:04.277Z,8.96
2024-04-21T02:57:33.157Z,8.99
2024-04-21T03:00:01.229Z,8.99
2024-04-21T03:02:29.853Z,9.00
2024-04-21T03:04:57.894Z,8.99
2024-04-21T03:07:25.968Z,8.99
2024-04-21T03:09:54.057Z,8.98
2024-04-21T03:12:22.060Z,9.02
2024-04-21T03:14:50.052Z,9.03
2024-04-21T03:17:18.615Z,9.03
2024-04-21T03:19:48.251Z,9.03
2024-04-21T03:22:16.166Z,9.02
2024-04-21T03:24:44.445Z,9.03
2024-04-21T03:27:12.588Z,9.03
2024-04-21T03:29:41.340Z,9.00
2024-04-21T03:32:09.213Z,8.97
2024-04-21T03:34:37.069Z,8.96
2024-04-21T03:37:05.546Z,8.96
2024-04-21T03:39:34.230Z,8.97
2024-04-21T03:42:02.569Z,8.97
2024-04-21T03:44:30.410Z,8.97
2024-04-21T03:46:58.584Z,8.95
2024-04-21T03:49:26.710Z,8.91
2024-04-21T03:51:54.775Z,8.90
2024-04-21T03:54:22.711Z,8.92
2024-04-21T03:56:50.758Z,8.93
2024-04-21T03:59:18.549Z,8.92
2024-04-21T04:01:46.836Z,8.92
2024-04-21T04:04:15.163Z,8.93
2024-04-21T04:06:43.071Z,8.97
2024-04-21T04:09:10.937Z,9.01
2024-04-21T04:11:38.874Z,9.05
2024-04-21T04:14:06.782Z,9.07
2024-04-21T04:16:34.835Z,9.08
2024-04-21T04:19:02.935Z,9.02
2024-04-21T04:21:32.478Z,9.01
2024-04-21T04:24:00.437Z,9.01
2024-04-21T04:26:28.367Z,9.04
2024-04-21T04:28:56.175Z,9.06
2024-04-21T04:31:24.378Z,9.08
2024-04-21T04:33:53.032Z,9.12
2024-04-21T04:36:21.519Z,9.15
2024-04-21T04:38:49.742Z,9.18
2024-04-21T04:41:17.609Z,9.20
2024-04-21T04:43:45.628Z,9.23
2024-04-21T04:46:13.608Z,9.26
2024-04-21T04:48:41.741Z,9.28
2024-04-21T04:51:09.844Z,9.33
2024-04-21T04:53:39.298Z,9.37
2024-04-21T04:56:08.362Z,9.39
2024-04-21T04:58:36.197Z,9.42
2024-04-21T05:01:04.248Z,9.45
2024-04-21T05:03:32.115Z,9.47
2024-04-21T05:06:00.059Z,9.50
2024-04-21T05:08:27.844Z,9.53
2024-04-21T05:10:55.579Z,9.55
2024-04-21T05:13:23.652Z,9.57
2024-04-21T05:15:51.453Z,9.59
2024-04-21T05:18:19.651Z,9.61
2024-04-21T05:20:47.927Z,9.63
2024-04-21T05:23:15.727Z,9.62
2024-04-21T05:25:43.515Z,9.63
2024-04-21T05:28:11.939Z,9.58
2024-04-21T05:30:39.913Z,9.57
2024-04-21T05:33:07.980Z,9.61
2024-04-21T05:35:37.167Z,9.62
2024-04-21T05:38:06.579Z,9.65
2024-04-21T05:40:34.439Z,9.66
2024-04-21T05:43:02.491Z,9.65
2024-04-21T05:45:30.590Z,9.67
2024-04-21T05:47:58.811Z,9.71
2024-04-21T05:50:27.603Z,9.78
2024-04-21T05:52:55.776Z,9.83
2024-04-21T05:55:23.858Z,9.89
2024-04-21T05:57:52.038Z,9.93
2024-04-21T06:00:20.283Z,9.96
2024-04-21T06:02:48.146Z,9.96
2024-04-21T06:05:16.497Z,9.97
2024-04-21T06:07:44.649Z,9.97
2024-04-21T06:10:12.754Z,9.93
2024-04-21T06:12:40.943Z,9.87
2024-04-21T06:15:08.971Z,9.84
2024-04-21T06:17:37.188Z,9.80
2024-04-21T06:20:06.292Z,9.81
2024-04-21T06:22:34.488Z,9.79
2024-04-21T06:25:02.301Z,9.76
2024-04-21T06:27:34.479Z,9.73
2024-04-21T06:30:02.617Z,9.80
2024-04-21T06:32:30.768Z,9.88
2024-04-21T06:34:58.795Z,9.92
2024-04-21T06:37:27.481Z,9.94
2024-04-21T06:39:55.400Z,9.99
2024-04-21T06:42:23.388Z,10.09
2024-04-21T06:44:51.447Z,10.18
2024-04-21T06:47:19.302Z,10.14
2024-04-21T06:49:47.523Z,10.17
2024-04-21T06:52:15.727Z,10.23
2024-04-21T06:54:43.903Z,10.26
2024-04-21T06:57:11.842Z,10.34
2024-04-21T06:59:40.543Z,10.40
2024-04-21T07:02:08.823Z,10.45
2024-04-21T07:04:36.866Z,10.50
2024-04-21T07:07:05.040Z,10.67
2024-04-21T07:09:33.644Z,10.77
2024-04-21T07:12:01.827Z,10.90
2024-04-21T07:14:29.845Z,11.02
2024-04-21T07:16:57.617Z,11.13
2024-04-21T07:19:25.709Z,11.33
2024-04-21T07:21:58.856Z,11.36
2024-04-21T07:24:26.877Z,11.41
2024-04-21T07:26:54.810Z,11.60
2024-04-21T07:29:23.526Z,11.82
2024-04-21T07:31:51.697Z,11.88
2024-04-21T07:34:20.182Z,11.94
2024-04-21T07:36:48.633Z,12.09
2024-04-21T07:39:18.737Z,12.27
2024-04-21T07:41:46.757Z,12.40
2024-04-21T07:44:14.810Z,12.62
2024-04-21T07:46:42.855Z,12.72
2024-04-21T07:49:10.837Z,12.87
2024-04-21T07:51:39.037Z,12.98
2024-04-21T07:54:07.481Z,12.86
2024-04-21T07:56:35.498Z,12.89
2024-04-21T07:59:03.601Z,13.00
2024-04-21T08:01:31.753Z,13.08
2024-04-21T08:03:59.641Z,12.98
2024-04-21T08:06:27.626Z,13.08
2024-04-21T08:09:01.030Z,12.99
2024-04-21T08:11:35.522Z,12.96
2024-04-21T08:14:03.660Z,13.02
2024-04-21T08:16:34.304Z,13.11
2024-04-21T08:19:02.655Z,13.17
2024-04-21T08:21:30.815Z,13.13
2024-04-21T08:23:58.810Z,13.10
2024-04-21T08:26:27.678Z,13.37
2024-04-21T08:28:55.765Z,13.66
2024-04-21T08:31:23.869Z,13.85
2024-04-21T08:33:51.963Z,13.91
2024-04-21T08:36:20.080Z,14.11
2024-04-21T08:38:48.134Z,14.36
2024-04-21T08:41:20.842Z,14.68
2024-04-21T08:43:49.191Z,14.97
2024-04-21T08:46:17.533Z,15.03
2024-04-21T08:48:45.646Z,15.12
2024-04-21T08:51:14.564Z,15.30
2024-04-21T08:53:42.528Z,15.38
2024-04-21T08:56:19.021Z,15.32
2024-04-21T08:58:51.542Z,15.23
2024-04-21T09:01:19.974Z,14.91
2024-04-21T09:03:49.377Z,14.93
2024-04-21T09:06:17.931Z,15.03
2024-04-21T09:08:45.773Z,15.26
2024-04-21T09:11:13.624Z,15.48
2024-04-21T09:13:41.796Z,15.95
2024-04-21T09:16:10.924Z,16.42
2024-04-21T09:18:39.342Z,16.71
2024-04-21T09:21:07.573Z,16.93
2024-04-21T09:23:36.051Z,17.17
2024-04-21T09:26:05.812Z,17.46
2024-04-21T09:28:34.214Z,17.48
2024-04-21T09:31:02.232Z,17.24
2024-04-21T09:33:30.992Z,17.15
2024-04-21T09:35:59.744Z,17.33
2024-04-21T09:38:27.929Z,17.48
2024-04-21T09:40:57.841Z,17.61
2024-04-21T09:43:28.620Z,17.73
2024-04-21T09:45:59.128Z,17.42
2024-04-21T09:48:30.549Z,17.02
2024-04-21T09:50:58.538Z,16.73
2024-04-21T09:53:28.134Z,16.87
2024-04-21T09:55:57.045Z,17.54
2024-04-21T09:58:26.582Z,18.07
2024-04-21T10:00:54.945Z,18.24
2024-04-21T10:03:23.187Z,18.63
2024-04-21T10:05:52.815Z,18.49
2024-04-21T10:08:23.005Z,18.67
2024-04-21T10:10:54.221Z,19.18
2024-04-21T10:13:23.027Z,19.53
2024-04-21T10:15:51.770Z,19.92
2024-04-21T10:18:24.904Z,20.24
2024-04-21T10:20:54.199Z,20.39
2024-04-21T10:23:22.157Z,20.65
2024-04-21T10:25:52.273Z,20.73
2024-04-21T10:28:26.306Z,20.96
2024-04-21T10:31:03.670Z,21.50
2024-04-21T10:33:31.833Z,22.11
2024-04-21T10:35:59.707Z,22.57
2024-04-21T10:38:27.502Z,22.25
2024-04-21T10:40:56.891Z,21.90
2024-04-21T10:43:26.800Z,22.10
2024-04-21T10:45:56.078Z,21.46
2024-04-21T10:48:24.447Z,21.45
2024-04-21T10:50:52.523Z,21.92
2024-04-21T10:53:20.786Z,21.99
2024-04-21T10:55:51.014Z,22.35
2024-04-21T10:58:20.535Z,22.52
2024-04-21T11:00:48.785Z,22.77
2024-04-21T11:03:17.566Z,22.99
2024-04-21T11:05:54.813Z,22.97
2024-04-21T11:08:24.855Z,22.55
2024-04-21T11:10:53.018Z,22.51
2024-04-21T11:13:22.508Z,22.84
2024-04-21T11:15:50.562Z,23.10
2024-04-21T11:18:18.780Z,22.97
2024-04-21T11:20:47.026Z,23.20
2024-04-21T11:23:19.758Z,23.36
2024-04-21T11:25:47.789Z,23.72
2024-04-21T11:28:17.335Z,24.03
2024-04-21T11:30:45.640Z,23.94
2024-04-21T11:33:13.651Z,24.30
2024-04-21T11:35:42.034Z,24.63
2024-04-21T11:38:09.810Z,24.98
2024-04-21T11:40:38.417Z,25.41
2024-04-21T11:43:06.343Z,25.62
2024-04-21T11:45:34.479Z,25.31
2024-04-21T11:48:02.379Z,24.76
2024-04-21T11:50:30.625Z,25.04
2024-04-21T11:52:58.418Z,25.30
2024-04-21T11:55:26.445Z,25.82
2024-04-21T11:57:54.433Z,26.23
2024-04-21T12:00:22.520Z,26.69
2024-04-21T12:02:50.847Z,27.03
2024-04-21T12:05:18.877Z,26.79
2024-04-21T12:07:47.186Z,26.30
2024-04-21T12:10:15.340Z,25.76
2024-04-21T12:12:43.846Z,25.81
2024-04-21T12:15:11.703Z,26.01
2024-04-21T12:17:39.776Z,26.21
2024-04-21T12:20:08.115Z,26.40
2024-04-21T12:22:36.087Z,25.73
2024-04-21T12:25:04.350Z,25.74
2024-04-21T12:27:32.353Z,25.75
2024-04-21T12:30:00.672Z,25.85
2024-04-21T12:32:28.780Z,26.01
2024-04-21T12:34:56.747Z,26.09
2024-04-21T12:37:24.902Z,26.09
2024-04-21T12:39:52.878Z,26.04
2024-04-21T12:42:20.985Z,26.01
2024-04-21T12:44:48.790Z,26.15
2024-04-21T12:47:17.760Z,26.46
2024-04-21T12:49:45.810Z,26.64
2024-04-21T12:52:14.563Z,26.14
2024-04-21T12:54:42.530Z,25.71
2024-04-21T12:57:10.592Z,25.65
2024-04-21T12:59:38.586Z,25.68
2024-04-21T13:02:07.160Z,25.07
2024-04-21T13:04:35.339Z,24.21
2024-04-21T13:07:03.294Z,23.56
2024-04-21T13:09:31.284Z,22.78
2024-04-21T13:11:59.729Z,22.32
2024-04-21T13:14:27.705Z,22.55
2024-04-21T13:16:55.758Z,22.80
2024-04-21T13:19:28.832Z,23.10
2024-04-21T13:21:56.875Z,23.21
2024-04-21T13:24:25.135Z,23.15
2024-04-21T13:26:53.041Z,22.57
2024-04-21T13:29:21.180Z,21.78
2024-04-21T13:31:49.207Z,21.07
2024-04-21T13:34:17.366Z,20.57
2024-04-21T13:36:45.623Z,20.32
2024-04-21T13:39:13.452Z,20.18
2024-04-21T13:41:41.226Z,20.03
2024-04-21T13:44:09.585Z,19.93
2024-04-21T13:46:37.734Z,19.71
2024-04-21T13:49:05.664Z,19.54
2024-04-21T13:51:33.851Z,19.30
2024-04-21T13:54:02.541Z,19.15
2024-04-21T13:56:31.127Z,19.02
2024-04-21T13:58:59.225Z,18.82
2024-04-21T14:01:27.428Z,18.66
2024-04-21T14:03:56.563Z,18.53
2024-04-21T14:06:30.357Z,18.54
2024-04-21T14:08:58.823Z,18.60
2024-04-21T14:11:26.712Z,18.81
2024-04-21T14:13:55.112Z,19.29
2024-04-21T14:16:23.191Z,19.96
2024-04-21T14:18:52.626Z,20.80
2024-04-21T14:21:21.778Z,21.47
2024-04-21T14:23:49.567Z,21.98
2024-04-21T14:26:17.333Z,22.05
2024-04-21T14:28:45.901Z,22.26
2024-04-21T14:31:13.872Z,22.40
2024-04-21T14:33:41.671Z,22.86
2024-04-21T14:36:09.461Z,23.10
2024-04-21T14:38:37.781Z,22.73
2024-04-21T14:41:05.982Z,22.87
2024-04-21T14:43:33.874Z,23.58
2024-04-21T14:46:01.796Z,24.15
2024-04-21T14:48:30.515Z,24.61
2024-04-21T14:50:59.068Z,25.36
2024-04-21T14:53:27.854Z,26.15
2024-04-21T14:56:00.240Z,26.75
2024-04-21T14:58:28.550Z,27.19
2024-04-21T15:00:56.772Z,27.23
2024-04-21T15:03:25.073Z,27.25
2024-04-21T15:05:53.390Z,27.01
2024-04-21T15:08:21.350Z,26.80
2024-04-21T15:10:50.694Z,27.03
2024-04-21T15:13:18.885Z,27.27
2024-04-21T15:15:47.186Z,27.48
2024-04-21T15:18:15.127Z,27.70
2024-04-21T15:20:52.025Z,27.80
2024-04-21T15:23:19.994Z,27.80
2024-04-21T15:25:48.089Z,27.67
2024-04-21T15:28:16.022Z,27.64
2024-04-21T15:30:43.901Z,27.18
2024-04-21T15:33:12.269Z,26.30
2024-04-21T15:35:41.789Z,25.46
2024-04-21T15:38:09.750Z,25.14
2024-04-21T15:40:37.723Z,25.03
2024-04-21T15:43:08.204Z,24.68
2024-04-21T15:45:36.363Z,24.34
2024-04-21T15:48:04.752Z,23.78
2024-04-21T15:50:32.852Z,23.05
2024-04-21T15:53:00.690Z,23.10
2024-04-21T15:55:29.664Z,23.33
2024-04-21T15:57:57.834Z,23.76
2024-04-21T16:00:26.164Z,24.27
2024-04-21T16:02:54.126Z,24.61
2024-04-21T16:05:23.774Z,25.22
2024-04-21T16:07:52.450Z,25.67
2024-04-21T16:10:21.084Z,26.13
2024-04-21T16:12:50.516Z,26.34
2024-04-21T16:15:19.879Z,26.04
2024-04-21T16:17:50.236Z,25.15
2024-04-21T16:20:18.528Z,23.85
2024-04-21T16:22:47.382Z,23.02
2024-04-21T16:25:15.667Z,22.80
2024-04-21T16:27:43.562Z,22.29
2024-04-21T16:30:11.851Z,21.57
2024-04-21T16:32:42.051Z,20.99
2024-04-21T16:35:10.678Z,20.38
2024-04-21T16:37:40.257Z,19.57
2024-04-21T16:40:08.765Z,19.07
2024-04-21T16:42:37.021Z,18.84
2024-04-21T16:45:05.354Z,18.69
2024-04-21T16:47:36.049Z,18.39
2024-04-21T16:50:04.378Z,17.95
2024-04-21T16:52:32.730Z,17.53
2024-04-21T16:55:00.874Z,17.23
2024-04-21T16:57:29.909Z,17.11
2024-04-21T16:59:58.129Z,17.02
2024-04-21T17:02:26.300Z,16.92
2024-04-21T17:04:56.911Z,16.83
2024-04-21T17:07:31.017Z,16.70
2024-04-21T17:09:59.746Z,16.51
2024-04-21T17:12:28.062Z,16.25
2024-04-21T17:14:55.837Z,16.07
2024-04-21T17:17:23.729Z,15.97
2024-04-21T17:19:51.790Z,15.90
2024-04-21T17:22:20.576Z,15.81
2024-04-21T17:24:48.734Z,15.65
2024-04-21T17:27:16.804Z,15.45
2024-04-21T17:29:44.614Z,15.23
2024-04-21T17:32:12.796Z,15.04
2024-04-21T17:34:41.123Z,14.87
2024-04-21T17:37:09.128Z,14.69
2024-04-21T17:39:37.254Z,14.54
2024-04-21T17:42:05.458Z,14.33
2024-04-21T17:44:33.357Z,14.15
2024-04-21T17:47:02.455Z,13.96
2024-04-21T17:49:30.668Z,13.79
2024-04-21T17:51:59.401Z,13.66
2024-04-21T17:54:27.563Z,13.56
2024-04-21T17:56:57.625Z,13.47
2024-04-21T17:59:25.493Z,13.33
2024-04-21T18:01:53.937Z,13.21
2024-04-21T18:04:22.122Z,13.07
2024-04-21T18:06:51.076Z,12.89
2024-04-21T18:09:18.910Z,12.75
2024-04-21T18:11:47.596Z,12.64
2024-04-21T18:14:15.641Z,12.53
2024-04-21T18:16:43.658Z,12.42
2024-04-21T18:19:11.607Z,12.32
2024-04-21T18:21:44.821Z,12.27
2024-04-21T18:24:12.780Z,12.20
2024-04-21T18:26:42.445Z,12.13
2024-04-21T18:29:13.367Z,12.02
2024-04-21T18:31:41.258Z,11.92
2024-04-21T18:34:09.396Z,11.82
2024-04-21T18:36:37.424Z,11.73
2024-04-21T18:39:05.508Z,11.62
2024-04-21T18:41:33.785Z,11.50
2024-04-21T18:44:01.633Z,11.39
2024-04-21T18:46:30.333Z,11.28
2024-04-21T18:48:58.945Z,11.20
2024-04-21T18:51:26.735Z,11.14
2024-04-21T18:53:55.447Z,11.08
2024-04-21T18:56:23.239Z,10.98
2024-04-21T18:58:51.165Z,10.87
2024-04-21T19:01:19.078Z,10.77
2024-04-21T19:03:47.261Z,10.68
2024-04-21T19:06:18.116Z,10.58
2024-04-21T19:08:46.097Z,10.52
2024-04-21T19:11:14.283Z,10.45
2024-04-21T19:13:43.459Z,10.38
2024-04-21T19:16:12.696Z,10.28
2024-04-21T19:18:40.780Z,10.22
2024-04-21T19:21:09.301Z,10.15
2024-04-21T19:23:38.194Z,10.09
2024-04-21T19:26:06.003Z,10.03
2024-04-21T19:28:35.737Z,9.98
2024-04-21T19:31:04.183Z,9.92
2024-04-21T19:33:32.106Z,9.82
2024-04-21T19:36:00.133Z,9.74
2024-04-21T19:38:28.206Z,9.63
2024-04-21T19:40:56.149Z,9.52
2024-04-21T19:43:24.247Z,9.44
2024-04-21T19:45:54.827Z,9.35
2024-04-21T19:48:24.588Z,9.24
2024-04-21T19:50:57.008Z,9.15
2024-04-21T19:53:25.400Z,9.10
2024-04-21T19:55:53.595Z,9.04
2024-04-21T19:58:21.609Z,8.98
2024-04-21T20:00:52.108Z,8.93
2024-04-21T20:03:21.335Z,8.87
2024-04-21T20:05:49.477Z,8.84
2024-04-21T20:08:17.498Z,8.84
2024-04-21T20:10:45.575Z,8.84
2024-04-21T20:13:13.551Z,8.73
2024-04-21T20:16:00.005Z,8.63
2024-04-21T20:18:41.191Z,8.53
2024-04-21T20:21:09.399Z,8.47
2024-04-21T20:23:37.845Z,8.43
2024-04-21T20:26:12.780Z,8.40
2024-04-21T20:28:41.255Z,8.39
2024-04-21T20:31:15.919Z,8.40
2024-04-21T20:33:45.519Z,8.36
2024-04-21T20:36:19.949Z,8.34
2024-04-21T20:38:48.555Z,8.27
2024-04-21T20:41:19.266Z,8.20
2024-04-21T20:43:47.332Z,8.12
2024-04-21T20:46:23.436Z,8.02
2024-04-21T20:48:53.492Z,7.93
2024-04-21T20:51:21.318Z,7.85
2024-04-21T20:53:49.876Z,7.80
2024-04-21T20:56:18.182Z,7.78
2024-04-21T20:58:52.306Z,7.75
2024-04-21T21:01:21.776Z,7.70
2024-04-21T21:03:50.819Z,7.67
2024-04-21T21:06:21.672Z,7.67
2024-04-21T21:08:49.817Z,7.63
2024-04-21T21:11:17.739Z,7.57
2024-04-21T21:13:45.933Z,7.53
2024-04-21T21:16:13.885Z,7.52
2024-04-21T21:18:42.081Z,7.49
2024-04-21T21:21:10.007Z,7.42
2024-04-21T21:23:37.854Z,7.38
2024-04-21T21:26:05.790Z,7.36
2024-04-21T21:28:33.699Z,7.36
2024-04-21T21:31:02.645Z,7.36
2024-04-21T21:33:31.019Z,7.35
2024-04-21T21:35:59.086Z,7.35
2024-04-21T21:38:27.582Z,7.36
2024-04-21T21:40:57.422Z,7.35
2024-04-21T21:43:25.998Z,7.30
2024-04-21T21:45:53.907Z,7.24
2024-04-21T21:48:21.730Z,7.18
2024-04-21T21:50:49.801Z,7.16
2024-04-21T21:53:17.761Z,7.12
2024-04-21T21:55:46.352Z,7.10
2024-04-21T21:58:14.314Z,7.07
2024-04-21T22:00:42.258Z,7.01
2024-04-21T22:03:13.469Z,6.96
2024-04-21T22:05:41.251Z,6.90
2024-04-21T22:08:09.267Z,6.85
2024-04-21T22:10:37.046Z,6.80
2024-04-21T22:13:05.042Z,6.77
2024-04-21T22:15:32.925Z,6.74
2024-04-21T22:18:00.981Z,6.71
2024-04-21T22:20:29.251Z,6.72
2024-04-21T22:22:57.352Z,6.74
2024-04-21T22:25:25.447Z,6.74
2024-04-21T22:27:53.573Z,6.73
2024-04-21T22:30:21.562Z,6.69
2024-04-21T22:32:49.650Z,6.66
2024-04-21T22:35:18.009Z,6.66
2024-04-21T22:37:46.331Z,6.66
2024-04-21T22:40:14.591Z,6.67
2024-04-21T22:42:43.661Z,6.72
2024-04-21T22:45:11.962Z,6.78
2024-04-21T22:47:40.248Z,6.80
2024-04-21T22:50:08.304Z,6.82
2024-04-21T22:52:36.889Z,6.83
2024-04-21T22:55:05.228Z,6.79
2024-04-21T22:57:33.195Z,6.75
2024-04-21T23:00:00.967Z,6.71
2024-04-21T23:02:29.056Z,6.68
2024-04-21T23:04:57.238Z,6.69
2024-04-21T23:07:25.517Z,6.68
2024-04-21T23:09:53.527Z,6.69
2024-04-21T23:12:21.321Z,6.68
2024-04-21T23:14:49.575Z,6.66
2024-04-21T23:17:17.371Z,6.65
2024-04-21T23:19:45.211Z,6.58
2024-04-21T23:22:13.429Z,6.48
2024-04-21T23:24:41.547Z,6.40
2024-04-21T23:27:09.637Z,6.34
2024-04-21T23:29:37.718Z,6.30
2024-04-21T23:32:05.787Z,6.23
2024-04-21T23:34:34.033Z,6.20
2024-04-21T23:37:02.338Z,6.17
2024-04-21T23:39:30.151Z,6.09
2024-04-21T23:41:57.923Z,6.04
2024-04-21T23:44:25.719Z,6.03
2024-04-21T23:46:53.842Z,6.03
2024-04-21T23:49:21.749Z,6.05
2024-04-21T23:51:50.724Z,6.08
2024-04-21T23:54:18.704Z,6.11
2024-04-21T23:56:46.980Z,6.13
2024-04-21T23:59:17.813Z,6.16
